createdAt,value
2018-05-21T00:00:34.630Z,13.50
2018-05-21T00:03:01.369Z,12.93
2018-05-21T00:05:28.033Z,13.27
2018-05-21T00:07:55.018Z,12.80
2018-05-21T00:10:22.459Z,12.77
2018-05-21T00:12:49.980Z,13.40
2018-05-21T00:15:16.635Z,13.20
2018-05-21T00:17:43.295Z,13.47
2018-05-21T00:20:10.706Z,13.27
2018-05-21T00:22:37.424Z,13.20
2018-05-21T00:25:04.066Z,13.40
2018-05-21T00:27:30.749Z,14.00
2018-05-21T00:29:57.396Z,13.20
2018-05-21T00:32:24.020Z,13.40
2018-05-21T00:34:50.714Z,13.97
2018-05-21T00:37:17.581Z,13.87
2018-05-21T00:39:44.318Z,14.53
2018-05-21T00:42:11.167Z,14.30
2018-05-21T00:44:37.933Z,13.13
2018-05-21T00:47:04.744Z,13.17
2018-05-21T00:49:54.921Z,12.77
2018-05-21T00:52:21.683Z,12.93
2018-05-21T00:55:00.508Z,12.73
2018-05-21T00:57:27.242Z,12.80
2018-05-21T00:59:54.080Z,12.53
2018-05-21T01:02:20.816Z,11.73
2018-05-21T01:04:47.556Z,11.00
2018-05-21T01:07:14.403Z,12.47
2018-05-21T01:09:41.358Z,12.60
2018-05-21T01:12:08.080Z,12.47
2018-05-21T01:14:34.775Z,12.60
2018-05-21T01:17:02.238Z,11.40
2018-05-21T01:19:28.937Z,12.17
2018-05-21T01:21:55.605Z,12.17
2018-05-21T01:24:23.112Z,12.60
2018-05-21T01:26:49.818Z,12.17
2018-05-21T01:29:16.620Z,12.60
2018-05-21T01:31:43.430Z,12.93
2018-05-21T01:34:10.257Z,12.63
2018-05-21T01:36:36.983Z,13.57
2018-05-21T01:39:03.873Z,12.20
2018-05-21T01:41:30.609Z,13.37
2018-05-21T01:43:57.471Z,13.90
2018-05-21T01:46:24.302Z,11.77
2018-05-21T01:48:51.036Z,13.13
2018-05-21T01:51:17.714Z,12.87
2018-05-21T01:53:45.132Z,12.67
2018-05-21T01:56:11.854Z,12.63
2018-05-21T01:58:38.598Z,12.67
2018-05-21T02:01:05.449Z,12.97
2018-05-21T02:03:32.164Z,13.23
2018-05-21T02:05:58.888Z,12.70
2018-05-21T02:08:25.619Z,11.83
2018-05-21T02:10:52.358Z,12.43
2018-05-21T02:13:19.097Z,12.20
2018-05-21T02:15:46.081Z,12.77
2018-05-21T02:18:13.133Z,13.27
2018-05-21T02:20:39.865Z,12.60
2018-05-21T02:23:06.503Z,13.77
2018-05-21T02:25:33.243Z,12.67
2018-05-21T02:27:59.956Z,13.13
2018-05-21T02:30:26.727Z,12.70
2018-05-21T02:32:53.464Z,12.57
2018-05-21T02:35:20.206Z,12.33
2018-05-21T02:37:47.144Z,12.67
2018-05-21T02:40:13.799Z,12.97
2018-05-21T02:42:40.623Z,13.10
2018-05-21T02:45:07.261Z,13.23
2018-05-21T02:47:34.086Z,12.40
2018-05-21T02:50:00.832Z,12.00
2018-05-21T02:52:27.568Z,11.90
2018-05-21T02:54:54.439Z,11.93
2018-05-21T02:57:21.077Z,11.63
2018-05-21T02:59:47.813Z,12.53
2018-05-21T03:02:14.544Z,11.93
2018-05-21T03:04:41.385Z,11.50
2018-05-21T03:07:08.022Z,12.33
2018-05-21T03:09:34.736Z,11.90
2018-05-21T03:12:01.385Z,11.03
2018-05-21T03:14:28.034Z,10.87
2018-05-21T03:16:54.965Z,10.57
2018-05-21T03:19:21.728Z,11.67
2018-05-21T03:21:48.373Z,10.90
2018-05-21T03:24:15.065Z,10.63
2018-05-21T03:26:41.840Z,10.87
2018-05-21T03:29:08.582Z,11.07
2018-05-21T03:31:35.527Z,10.90
2018-05-21T03:34:02.148Z,11.80
2018-05-21T03:36:28.818Z,11.70
2018-05-21T03:38:56.445Z,11.70
2018-05-21T03:41:23.177Z,11.83
2018-05-21T03:43:49.925Z,10.53
2018-05-21T03:46:16.729Z,11.30
2018-05-21T03:48:44.205Z,11.03
2018-05-21T03:51:10.793Z,11.30
2018-05-21T03:53:37.507Z,11.43
2018-05-21T03:56:04.210Z,12.53
2018-05-21T03:58:43.153Z,15.67
2018-05-21T04:01:22.005Z,16.77
2018-05-21T04:03:54.920Z,15.77
2018-05-21T04:06:22.446Z,13.97
2018-05-21T04:08:49.111Z,14.17
2018-05-21T04:11:16.476Z,13.90
2018-05-21T04:13:44.067Z,14.50
2018-05-21T04:16:10.696Z,14.33
2018-05-21T04:18:37.572Z,14.57
2018-05-21T04:21:04.288Z,14.37
2018-05-21T04:23:30.948Z,12.77
2018-05-21T04:25:57.688Z,13.83
2018-05-21T04:28:24.268Z,12.40
2018-05-21T04:30:51.783Z,10.73
2018-05-21T04:33:18.521Z,11.20
2018-05-21T04:35:45.263Z,10.60
2018-05-21T04:38:12.237Z,11.03
2018-05-21T04:40:39.700Z,10.80
2018-05-21T04:43:07.090Z,10.13
2018-05-21T04:45:33.652Z,10.70
2018-05-21T04:48:00.293Z,10.20
2018-05-21T04:50:27.032Z,11.40
2018-05-21T04:52:53.870Z,10.77
2018-05-21T04:55:20.609Z,11.43
2018-05-21T04:57:47.230Z,11.13
2018-05-21T05:00:13.807Z,12.43
2018-05-21T05:02:40.602Z,12.17
2018-05-21T05:05:07.362Z,12.33
2018-05-21T05:07:33.936Z,12.37
2018-05-21T05:10:01.339Z,12.13
2018-05-21T05:12:27.973Z,11.90
2018-05-21T05:14:54.705Z,12.43
2018-05-21T05:17:21.474Z,12.23
2018-05-21T05:19:48.210Z,13.00
2018-05-21T05:22:14.924Z,12.10
2018-05-21T05:24:42.720Z,13.37
2018-05-21T05:27:09.350Z,15.45
2018-05-21T05:29:35.966Z,15.63
2018-05-21T05:32:02.564Z,16.97
2018-05-21T05:34:29.882Z,17.93
2018-05-21T05:36:56.514Z,16.93
2018-05-21T05:39:23.115Z,17.33
2018-05-21T05:41:49.825Z,16.80
2018-05-21T05:44:16.536Z,16.63
2018-05-21T05:46:43.249Z,16.13
2018-05-21T05:49:09.982Z,16.87
2018-05-21T05:51:36.667Z,14.03
2018-05-21T05:54:03.490Z,14.63
2018-05-21T05:56:30.329Z,13.47
2018-05-21T05:58:57.152Z,11.73
2018-05-21T06:01:23.740Z,10.43
2018-05-21T06:03:50.371Z,10.10
2018-05-21T06:06:17.066Z,11.85
2018-05-21T06:08:43.827Z,11.03
2018-05-21T06:11:10.437Z,10.80
2018-05-21T06:13:37.159Z,10.53
2018-05-21T06:16:03.736Z,11.27
2018-05-21T06:18:30.474Z,10.40
2018-05-21T06:20:57.393Z,10.63
2018-05-21T06:23:24.003Z,10.33
2018-05-21T06:25:51.490Z,9.63
2018-05-21T06:28:18.865Z,9.33
2018-05-21T06:30:45.606Z,8.77
2018-05-21T06:33:12.241Z,8.43
2018-05-21T06:35:38.843Z,9.33
2018-05-21T06:38:05.425Z,7.93
2018-05-21T06:40:32.052Z,7.40
2018-05-21T06:42:58.791Z,7.50
2018-05-21T06:45:26.226Z,6.87
2018-05-21T06:47:52.805Z,6.40
2018-05-21T06:50:19.446Z,7.03
2018-05-21T06:52:46.141Z,7.20
2018-05-21T06:55:12.900Z,6.60
2018-05-21T06:57:39.545Z,6.10
2018-05-21T07:00:06.362Z,6.70
2018-05-21T07:02:32.961Z,6.57
2018-05-21T07:05:00.370Z,6.53
2018-05-21T07:07:27.113Z,6.57
2018-05-21T07:09:53.851Z,7.30
2018-05-21T07:12:20.461Z,7.73
2018-05-21T07:14:47.096Z,7.13
2018-05-21T07:17:13.764Z,8.13
2018-05-21T07:19:40.505Z,6.60
2018-05-21T07:22:07.445Z,6.83
2018-05-21T07:24:34.262Z,7.30
2018-05-21T07:27:00.925Z,7.40
2018-05-21T07:29:27.642Z,6.60
2018-05-21T07:31:54.403Z,7.23
2018-05-21T07:34:21.014Z,7.10
2018-05-21T07:36:47.681Z,7.07
2018-05-21T07:39:14.317Z,5.60
2018-05-21T07:41:41.036Z,6.07
2018-05-21T07:44:07.669Z,6.70
2018-05-21T07:46:34.241Z,7.17
2018-05-21T07:49:00.968Z,7.33
2018-05-21T07:51:27.698Z,7.13
2018-05-21T07:53:54.398Z,8.37
2018-05-21T07:56:21.799Z,8.00
2018-05-21T07:58:48.541Z,7.27
2018-05-21T08:01:15.116Z,7.60
2018-05-21T08:03:42.839Z,7.67
2018-05-21T08:06:09.552Z,8.10
2018-05-21T08:08:36.162Z,8.60
2018-05-21T08:11:03.504Z,8.67
2018-05-21T08:13:30.902Z,8.00
2018-05-21T08:15:57.515Z,8.57
2018-05-21T08:18:24.890Z,7.87
2018-05-21T08:20:51.555Z,7.00
2018-05-21T08:23:18.397Z,7.10
2018-05-21T08:25:45.209Z,7.10
2018-05-21T08:28:11.849Z,8.43
2018-05-21T08:30:38.593Z,7.40
2018-05-21T08:33:05.254Z,9.20
2018-05-21T08:35:32.035Z,7.10
2018-05-21T08:37:59.448Z,9.03
2018-05-21T08:40:26.176Z,9.40
2018-05-21T08:42:53.032Z,7.90
2018-05-21T08:45:19.745Z,7.23
2018-05-21T08:47:46.352Z,5.40
2018-05-21T08:50:13.763Z,6.43
2018-05-21T08:52:40.400Z,7.10
2018-05-21T08:55:07.229Z,7.07
2018-05-21T08:57:34.564Z,6.30
2018-05-21T09:00:01.311Z,6.43
2018-05-21T09:02:27.909Z,6.47
2018-05-21T09:04:55.298Z,6.60
2018-05-21T09:07:21.953Z,6.97
2018-05-21T09:09:48.598Z,6.57
2018-05-21T09:12:15.257Z,6.10
2018-05-21T09:14:41.835Z,6.73
2018-05-21T09:17:08.486Z,6.70
2018-05-21T09:19:35.242Z,6.00
2018-05-21T09:22:01.965Z,5.67
2018-05-21T09:24:28.640Z,7.53
2018-05-21T09:26:55.526Z,6.07
2018-05-21T09:29:23.014Z,6.33
2018-05-21T09:31:49.620Z,5.87
2018-05-21T09:34:16.307Z,5.23
2018-05-21T09:36:42.950Z,6.23
2018-05-21T09:39:09.581Z,5.60
2018-05-21T09:41:36.188Z,6.00
2018-05-21T09:44:03.055Z,5.33
2018-05-21T09:46:29.903Z,6.17
2018-05-21T09:48:56.508Z,5.73
2018-05-21T09:51:23.277Z,5.57
2018-05-21T09:53:50.020Z,5.60
2018-05-21T09:56:16.724Z,5.60
2018-05-21T09:58:43.479Z,5.60
2018-05-21T10:01:10.950Z,6.10
2018-05-21T10:03:37.537Z,6.07
2018-05-21T10:06:04.890Z,5.40
2018-05-21T10:08:32.294Z,7.60
2018-05-21T10:10:58.873Z,6.37
2018-05-21T10:13:26.287Z,6.30
2018-05-21T10:15:52.924Z,6.30
2018-05-21T10:18:19.671Z,6.03
2018-05-21T10:20:46.276Z,6.57
2018-05-21T10:23:13.221Z,8.07
2018-05-21T10:25:39.887Z,6.47
2018-05-21T10:28:06.805Z,7.30
2018-05-21T10:30:33.567Z,6.60
2018-05-21T10:33:00.203Z,7.20
2018-05-21T10:35:26.816Z,6.13
2018-05-21T10:37:53.584Z,5.80
2018-05-21T10:40:20.177Z,5.80
2018-05-21T10:42:46.855Z,6.30
2018-05-21T10:45:13.596Z,6.10
2018-05-21T10:47:40.235Z,6.00
2018-05-21T10:50:06.977Z,6.60
2018-05-21T10:52:34.432Z,6.07
2018-05-21T10:55:01.058Z,6.70
2018-05-21T10:57:28.005Z,5.73
2018-05-21T10:59:54.648Z,5.57
2018-05-21T11:02:21.269Z,6.73
2018-05-21T11:04:48.024Z,6.17
2018-05-21T11:07:14.764Z,6.00
2018-05-21T11:09:41.506Z,5.93
2018-05-21T11:12:08.346Z,6.13
2018-05-21T11:14:34.985Z,6.50
2018-05-21T11:17:01.620Z,5.73
2018-05-21T11:19:28.360Z,5.93
2018-05-21T11:21:55.101Z,6.10
2018-05-21T11:24:21.839Z,6.03
2018-05-21T11:26:48.583Z,6.40
2018-05-21T11:29:15.504Z,6.27
2018-05-21T11:31:42.249Z,6.50
2018-05-21T11:34:08.872Z,6.20
2018-05-21T11:36:35.488Z,7.82
2018-05-21T11:39:03.152Z,6.40
2018-05-21T11:41:30.461Z,6.30
2018-05-21T11:43:57.068Z,5.90
2018-05-21T11:46:23.789Z,7.00
2018-05-21T11:48:51.180Z,6.57
2018-05-21T11:51:17.798Z,6.63
2018-05-21T11:53:44.534Z,6.87
2018-05-21T11:56:11.197Z,6.57
2018-05-21T11:58:38.040Z,6.50
2018-05-21T12:01:04.781Z,6.20
2018-05-21T12:03:31.618Z,6.37
2018-05-21T12:05:58.367Z,7.07
2018-05-21T12:08:25.918Z,7.33
2018-05-21T12:10:52.772Z,7.57
2018-05-21T12:13:19.367Z,7.03
2018-05-21T12:15:46.142Z,7.40
2018-05-21T12:18:12.878Z,7.60
2018-05-21T12:20:40.744Z,6.70
2018-05-21T12:23:07.320Z,7.73
2018-05-21T12:25:34.739Z,7.17
2018-05-21T12:28:01.579Z,7.33
2018-05-21T12:30:28.243Z,10.47
2018-05-21T12:32:54.955Z,6.50
2018-05-21T12:35:21.606Z,7.00
2018-05-21T12:37:48.187Z,6.93
2018-05-21T12:40:14.941Z,6.87
2018-05-21T12:42:41.889Z,6.57
2018-05-21T12:45:08.460Z,7.23
2018-05-21T12:47:35.188Z,7.23
2018-05-21T12:50:01.932Z,7.97
2018-05-21T12:52:28.561Z,8.80
2018-05-21T12:54:55.198Z,9.57
2018-05-21T12:57:21.768Z,8.27
2018-05-21T12:59:48.576Z,7.37
2018-05-21T13:02:15.315Z,9.00
2018-05-21T13:04:41.952Z,7.60
2018-05-21T13:07:08.607Z,8.27
2018-05-21T13:09:36.764Z,7.90
2018-05-21T13:12:03.399Z,7.53
2018-05-21T13:14:29.984Z,7.73
2018-05-21T13:16:57.359Z,8.23
2018-05-21T13:19:24.029Z,8.47
2018-05-21T13:21:50.985Z,8.43
2018-05-21T13:24:17.667Z,8.47
2018-05-21T13:26:45.070Z,8.87
2018-05-21T13:29:11.807Z,8.77
2018-05-21T13:31:38.444Z,7.87
2018-05-21T13:34:05.185Z,7.83
2018-05-21T13:36:31.821Z,8.17
2018-05-21T13:38:58.461Z,10.97
2018-05-21T13:41:25.302Z,9.63
2018-05-21T13:43:52.143Z,9.40
2018-05-21T13:46:19.085Z,9.70
2018-05-21T13:48:45.809Z,9.40
2018-05-21T13:51:12.464Z,8.47
2018-05-21T13:53:39.207Z,9.57
2018-05-21T13:56:05.846Z,8.60
2018-05-21T13:58:32.555Z,9.53
2018-05-21T14:00:59.323Z,9.47
2018-05-21T14:03:26.024Z,9.70
2018-05-21T14:05:52.699Z,9.13
2018-05-21T14:08:19.366Z,8.90
2018-05-21T14:10:46.049Z,10.10
2018-05-21T14:13:13.738Z,8.80
2018-05-21T14:15:40.474Z,8.80
2018-05-21T14:18:07.077Z,8.60
2018-05-21T14:20:33.701Z,8.03
2018-05-21T14:23:01.287Z,8.63
2018-05-21T14:25:27.935Z,9.33
2018-05-21T14:27:54.660Z,10.00
2018-05-21T14:30:21.322Z,9.10
2018-05-21T14:32:48.062Z,10.57
2018-05-21T14:35:14.776Z,9.80
2018-05-21T14:37:41.517Z,11.13
2018-05-21T14:40:08.174Z,9.80
2018-05-21T14:42:34.923Z,10.10
2018-05-21T14:45:01.975Z,10.50
2018-05-21T14:47:28.705Z,9.93
2018-05-21T14:49:55.450Z,10.03
2018-05-21T14:52:22.162Z,9.30
2018-05-21T14:54:49.043Z,9.37
2018-05-21T14:57:15.751Z,9.80
2018-05-21T14:59:42.407Z,8.83
2018-05-21T15:02:09.213Z,11.20
2018-05-21T15:04:36.704Z,10.20
2018-05-21T15:07:03.421Z,10.87
2018-05-21T15:09:29.997Z,10.87
2018-05-21T15:11:56.690Z,10.70
2018-05-21T15:14:23.355Z,10.80
2018-05-21T15:16:50.107Z,11.77
2018-05-21T15:19:16.827Z,9.97
2018-05-21T15:21:43.400Z,11.90
2018-05-21T15:24:10.802Z,12.03
2018-05-21T15:26:37.768Z,14.13
2018-05-21T15:29:04.512Z,13.17
2018-05-21T15:31:31.349Z,14.33
2018-05-21T15:33:58.032Z,12.93
2018-05-21T15:36:25.443Z,12.77
2018-05-21T15:38:52.056Z,12.43
2018-05-21T15:41:18.724Z,13.80
2018-05-21T15:43:45.354Z,12.07
2018-05-21T15:46:12.273Z,10.30
2018-05-21T15:48:38.963Z,10.23
2018-05-21T15:51:05.548Z,10.97
2018-05-21T15:53:32.213Z,10.63
2018-05-21T15:55:58.950Z,10.63
2018-05-21T15:58:25.693Z,10.57
2018-05-21T16:00:52.411Z,10.20
2018-05-21T16:03:19.172Z,11.30
2018-05-21T16:05:45.913Z,11.40
2018-05-21T16:08:12.527Z,11.20
2018-05-21T16:10:39.975Z,10.67
2018-05-21T16:13:06.564Z,11.13
2018-05-21T16:15:34.690Z,12.80
2018-05-21T16:18:01.323Z,13.63
2018-05-21T16:20:27.990Z,13.43
2018-05-21T16:22:54.565Z,13.93
2018-05-21T16:25:21.960Z,11.57
2018-05-21T16:27:48.552Z,13.40
2018-05-21T16:30:15.972Z,13.37
2018-05-21T16:32:42.810Z,13.30
2018-05-21T16:35:09.549Z,14.97
2018-05-21T16:37:36.161Z,14.10
2018-05-21T16:40:02.824Z,15.13
2018-05-21T16:42:29.571Z,14.83
2018-05-21T16:44:56.412Z,16.70
2018-05-21T16:47:23.118Z,13.50
2018-05-21T16:49:49.745Z,13.60
2018-05-21T16:52:16.383Z,13.20
2018-05-21T16:54:43.775Z,12.83
2018-05-21T16:57:10.361Z,13.17
2018-05-21T16:59:37.868Z,12.00
2018-05-21T17:02:04.467Z,13.73
2018-05-21T17:04:31.034Z,13.03
2018-05-21T17:06:57.841Z,13.30
2018-05-21T17:09:25.204Z,12.00
2018-05-21T17:11:51.854Z,12.67
2018-05-21T17:14:18.561Z,11.43
2018-05-21T17:16:45.947Z,10.13
2018-05-21T17:19:12.555Z,10.70
2018-05-21T17:21:39.876Z,11.40
2018-05-21T17:24:06.702Z,12.40
2018-05-21T17:26:33.441Z,14.97
2018-05-21T17:29:00.048Z,14.47
2018-05-21T17:31:26.712Z,14.03
2018-05-21T17:33:54.453Z,14.13
2018-05-21T17:36:21.121Z,15.20
2018-05-21T17:38:47.785Z,14.10
2018-05-21T17:41:15.265Z,15.30
2018-05-21T17:43:41.949Z,15.40
2018-05-21T17:46:08.661Z,16.17
2018-05-21T17:48:35.427Z,14.93
2018-05-21T17:51:02.136Z,15.83
2018-05-21T17:53:29.040Z,15.97
2018-05-21T17:55:56.444Z,14.17
2018-05-21T17:58:23.108Z,14.90
2018-05-21T18:00:49.945Z,17.10
2018-05-21T18:03:16.764Z,15.70
2018-05-21T18:05:43.297Z,15.43
2018-05-21T18:08:09.959Z,16.00
2018-05-21T18:10:36.553Z,14.80
2018-05-21T18:13:03.337Z,14.70
2018-05-21T18:15:30.076Z,14.00
2018-05-21T18:17:56.791Z,14.20
2018-05-21T18:20:23.657Z,16.90
2018-05-21T18:22:50.274Z,19.17
2018-05-21T18:25:16.930Z,18.43
2018-05-21T18:27:43.566Z,19.07
2018-05-21T18:30:10.270Z,17.20
2018-05-21T18:32:37.638Z,18.17
2018-05-21T18:35:04.406Z,18.70
2018-05-21T18:37:31.322Z,17.77
2018-05-21T18:39:58.086Z,16.27
2018-05-21T18:42:24.893Z,19.10
2018-05-21T18:44:52.186Z,18.57
2018-05-21T18:47:18.845Z,18.67
2018-05-21T18:49:45.522Z,18.57
2018-05-21T18:52:12.170Z,17.10
2018-05-21T18:54:39.083Z,17.03
2018-05-21T18:57:06.460Z,16.53
2018-05-21T18:59:33.055Z,16.40
2018-05-21T19:01:59.663Z,16.63
2018-05-21T19:04:26.407Z,15.27
2018-05-21T19:06:53.159Z,15.23
2018-05-21T19:09:19.882Z,16.03
2018-05-21T19:11:46.623Z,14.80
2018-05-21T19:14:13.259Z,14.97
2018-05-21T19:16:40.001Z,16.03
2018-05-21T19:19:06.948Z,17.70
2018-05-21T19:21:34.563Z,18.30
2018-05-21T19:24:02.720Z,23.57
2018-05-21T19:26:30.984Z,20.20
2018-05-21T19:28:59.456Z,18.13
2018-05-21T19:31:28.022Z,19.97
2018-05-21T19:33:56.723Z,21.53
2018-05-21T19:36:25.249Z,20.77
2018-05-21T19:38:54.298Z,20.87
2018-05-21T19:41:23.148Z,21.13
2018-05-21T19:43:51.972Z,20.27
2018-05-21T19:46:20.823Z,18.70
2018-05-21T19:48:49.656Z,21.53
2018-05-21T19:51:18.502Z,22.33
2018-05-21T19:53:47.250Z,26.43
2018-05-21T19:56:16.903Z,19.90
2018-05-21T19:58:46.126Z,21.83
2018-05-21T20:01:15.089Z,21.67
2018-05-21T20:03:43.699Z,25.27
2018-05-21T20:06:12.644Z,24.63
2018-05-21T20:08:41.371Z,23.87
2018-05-21T20:11:10.278Z,25.03
2018-05-21T20:13:38.901Z,25.13
2018-05-21T20:16:07.590Z,27.03
2018-05-21T20:18:36.645Z,29.40
2018-05-21T20:21:05.101Z,27.07
2018-05-21T20:23:33.534Z,26.03
2018-05-21T20:26:00.627Z,24.90
2018-05-21T20:28:27.375Z,25.53
2018-05-21T20:30:54.106Z,28.20
2018-05-21T20:33:20.949Z,32.83
2018-05-21T20:35:47.690Z,29.30
2018-05-21T20:38:14.303Z,32.60
2018-05-21T20:40:41.065Z,30.20
2018-05-21T20:43:07.886Z,31.00
2018-05-21T20:45:34.857Z,30.50
2018-05-21T20:48:01.910Z,32.63
2018-05-21T20:50:28.540Z,27.60
2018-05-21T20:52:55.140Z,28.83
2018-05-21T20:55:24.984Z,27.73
2018-05-21T20:57:51.723Z,27.63
2018-05-21T21:00:18.567Z,29.40
2018-05-21T21:02:45.221Z,30.53
2018-05-21T21:05:11.947Z,33.40
2018-05-21T21:07:38.684Z,36.63
2018-05-21T21:10:05.336Z,35.60
2018-05-21T21:12:32.034Z,34.30
2018-05-21T21:14:58.888Z,33.77
2018-05-21T21:17:25.541Z,33.57
2018-05-21T21:19:52.109Z,29.67
2018-05-21T21:22:19.533Z,30.00
2018-05-21T21:24:46.154Z,29.57
2018-05-21T21:27:13.899Z,30.57
2018-05-21T21:29:44.073Z,29.70
2018-05-21T21:32:10.700Z,32.20
2018-05-21T21:34:37.532Z,33.37
2018-05-21T21:37:04.143Z,33.13
2018-05-21T21:39:30.981Z,31.17
2018-05-21T21:41:57.647Z,32.30
2018-05-21T21:44:24.594Z,36.23
2018-05-21T21:46:51.334Z,34.97
2018-05-21T21:49:18.148Z,34.40
2018-05-21T21:51:44.744Z,32.73
2018-05-21T21:54:12.284Z,32.87
2018-05-21T21:56:38.981Z,32.93
2018-05-21T21:59:05.660Z,31.77
2018-05-21T22:01:32.690Z,32.03
2018-05-21T22:03:59.413Z,31.10
2018-05-21T22:06:26.008Z,32.53
2018-05-21T22:08:53.402Z,32.73
2018-05-21T22:11:20.062Z,31.40
2018-05-21T22:13:46.656Z,31.03
2018-05-21T22:16:14.155Z,31.63
2018-05-21T22:18:40.997Z,32.63
2018-05-21T22:21:07.736Z,31.23
